createdAt,value
2019-01-04T00:01:42.290Z,85.60
2019-01-04T00:04:24.589Z,85.60
2019-01-04T00:06:52.038Z,86.50
2019-01-04T00:09:19.466Z,85.70
2019-01-04T00:11:46.951Z,85.90
2019-01-04T00:14:14.531Z,88.10
2019-01-04T00:16:41.992Z,86.40
2019-01-04T00:19:09.575Z,86.00
2019-01-04T00:21:37.062Z,86.10
2019-01-04T00:24:04.421Z,86.10
2019-01-04T00:26:32.023Z,86.70
2019-01-04T00:28:59.379Z,86.20
2019-01-04T00:31:26.892Z,86.10
2019-01-04T00:33:54.480Z,86.70
2019-01-04T00:36:22.059Z,86.60
2019-01-04T00:38:50.629Z,86.60
2019-01-04T00:41:18.921Z,86.50
2019-01-04T00:43:46.387Z,86.20
2019-01-04T00:46:13.971Z,85.90
2019-01-04T00:48:41.546Z,86.40
2019-01-04T00:51:08.988Z,86.60
2019-01-04T00:53:36.667Z,86.30
2019-01-04T00:56:52.810Z,86.40
2019-01-04T01:00:18.415Z,86.50
2019-01-04T01:03:33.510Z,86.60
2019-01-04T01:06:44.318Z,86.40
2019-01-04T01:09:55.012Z,85.80
2019-01-04T01:13:28.178Z,85.70
2019-01-04T01:16:45.355Z,85.90
2019-01-04T01:20:14.855Z,86.20
2019-01-04T01:24:04.518Z,88.70
2019-01-04T01:27:57.754Z,86.60
2019-01-04T01:31:12.614Z,85.90
2019-01-04T01:34:15.964Z,86.00
2019-01-04T01:37:50.136Z,86.40
2019-01-04T01:41:28.446Z,86.70
2019-01-04T01:45:19.274Z,86.20
2019-01-04T01:48:12.217Z,86.10
2019-01-04T01:51:22.105Z,85.00
2019-01-04T01:53:49.613Z,85.50
2019-01-04T01:56:17.095Z,85.00
2019-01-04T01:58:44.791Z,84.70
2019-01-04T02:01:12.691Z,84.40
2019-01-04T02:03:40.443Z,83.20
2019-01-04T02:06:07.977Z,84.60
2019-01-04T02:08:35.575Z,84.80
2019-01-04T02:11:03.166Z,86.00
2019-01-04T02:13:30.592Z,85.70
2019-01-04T02:15:58.437Z,87.60
2019-01-04T02:18:26.026Z,86.30
2019-01-04T02:20:53.589Z,85.80
2019-01-04T02:23:21.238Z,85.70
2019-01-04T02:25:48.758Z,86.60
2019-01-04T02:28:16.360Z,86.70
2019-01-04T02:30:43.756Z,86.50
2019-01-04T02:33:11.113Z,86.30
2019-01-04T02:35:38.781Z,86.20
2019-01-04T02:38:06.198Z,85.90
2019-01-04T02:40:33.739Z,86.70
2019-01-04T02:43:02.129Z,86.70
2019-01-04T02:45:29.510Z,86.60
2019-01-04T02:47:56.889Z,86.10
2019-01-04T02:50:24.346Z,86.40
2019-01-04T02:52:51.670Z,86.50
2019-01-04T02:55:19.157Z,86.30
2019-01-04T02:57:46.697Z,85.70
2019-01-04T03:00:14.224Z,86.30
2019-01-04T03:02:41.798Z,86.00
2019-01-04T03:05:10.759Z,85.80
2019-01-04T03:07:39.034Z,86.00
2019-01-04T03:10:06.980Z,86.90
2019-01-04T03:12:34.428Z,86.70
2019-01-04T03:15:01.996Z,85.40
2019-01-04T03:17:29.556Z,85.40
2019-01-04T03:19:56.886Z,82.70
2019-01-04T03:22:24.364Z,83.30
2019-01-04T03:24:51.740Z,82.70
2019-01-04T03:27:19.288Z,82.60
2019-01-04T03:29:46.858Z,82.30
2019-01-04T03:32:14.232Z,81.70
2019-01-04T03:34:41.797Z,81.50
2019-01-04T03:37:09.603Z,80.50
2019-01-04T03:39:37.034Z,79.00
2019-01-04T03:42:04.555Z,78.80
2019-01-04T03:44:32.213Z,78.40
2019-01-04T03:47:00.011Z,78.20
2019-01-04T03:49:27.372Z,79.50
2019-01-04T03:51:54.856Z,78.80
2019-01-04T03:54:23.656Z,79.10
2019-01-04T03:56:51.033Z,78.30
2019-01-04T03:59:18.591Z,78.20
2019-01-04T04:01:46.014Z,78.20
2019-01-04T04:04:13.797Z,78.20
2019-01-04T04:06:41.276Z,78.80
2019-01-04T04:09:08.730Z,78.20
2019-01-04T04:11:36.453Z,78.20
2019-01-04T04:14:04.729Z,78.10
2019-01-04T04:16:32.733Z,78.70
2019-01-04T04:19:00.358Z,78.30
2019-01-04T04:21:27.822Z,78.10
2019-01-04T04:23:55.375Z,77.40
2019-01-04T04:26:22.733Z,77.00
2019-01-04T04:28:50.167Z,77.70
2019-01-04T04:31:17.648Z,76.70
2019-01-04T04:33:45.162Z,76.80
2019-01-04T04:36:12.676Z,77.10
2019-01-04T04:38:40.145Z,76.10
2019-01-04T04:41:07.536Z,76.40
2019-01-04T04:43:34.897Z,76.30
2019-01-04T04:46:03.198Z,76.60
2019-01-04T04:48:30.607Z,77.30
2019-01-04T04:50:58.168Z,77.20
2019-01-04T04:53:25.547Z,76.70
2019-01-04T04:55:53.003Z,76.20
2019-01-04T04:58:20.353Z,76.70
2019-01-04T05:00:47.815Z,77.20
2019-01-04T05:03:15.352Z,76.20
2019-01-04T05:05:42.742Z,76.10
2019-01-04T05:08:10.239Z,75.60
2019-01-04T05:10:37.693Z,76.20
2019-01-04T05:13:06.003Z,77.00
2019-01-04T05:15:33.503Z,76.50
2019-01-04T05:18:00.829Z,76.80
2019-01-04T05:20:28.559Z,77.70
2019-01-04T05:22:55.974Z,78.40
2019-01-04T05:25:23.593Z,78.60
2019-01-04T05:27:51.150Z,78.90
2019-01-04T05:30:19.103Z,78.90
2019-01-04T05:32:46.627Z,78.90
2019-01-04T05:35:14.018Z,79.00
2019-01-04T05:37:41.512Z,79.60
2019-01-04T05:40:09.280Z,79.80
2019-01-04T05:42:40.339Z,81.00
2019-01-04T05:45:07.928Z,81.40
2019-01-04T05:47:35.440Z,82.00
2019-01-04T05:50:03.313Z,82.40
2019-01-04T05:52:30.773Z,82.90
2019-01-04T05:54:58.128Z,85.10
2019-01-04T05:57:25.492Z,84.30
2019-01-04T05:59:52.937Z,85.20
2019-01-04T06:02:20.332Z,84.30
2019-01-04T06:04:47.798Z,84.70
2019-01-04T06:07:15.289Z,84.70
2019-01-04T06:09:42.637Z,84.90
2019-01-04T06:12:10.182Z,84.90
2019-01-04T06:14:39.618Z,85.00
2019-01-04T06:17:07.063Z,85.40
2019-01-04T06:19:34.640Z,85.80
2019-01-04T06:22:02.128Z,85.40
2019-01-04T06:24:29.509Z,85.40
2019-01-04T06:26:56.893Z,85.40
2019-01-04T06:29:24.276Z,85.80
2019-01-04T06:31:51.810Z,86.20
2019-01-04T06:34:19.208Z,86.40
2019-01-04T06:36:46.706Z,87.00
2019-01-04T06:39:14.046Z,86.80
2019-01-04T06:41:41.439Z,86.90
2019-01-04T06:44:08.874Z,86.90
2019-01-04T06:47:15.797Z,86.70
2019-01-04T06:49:43.550Z,86.70
2019-01-04T06:52:11.237Z,86.90
2019-01-04T06:55:35.733Z,87.30
2019-01-04T06:58:03.302Z,86.90
2019-01-04T07:00:30.684Z,87.00
2019-01-04T07:02:58.352Z,87.80
2019-01-04T07:05:25.872Z,87.40
2019-01-04T07:07:53.233Z,88.20
2019-01-04T07:10:20.760Z,87.90
2019-01-04T07:12:48.251Z,88.20
2019-01-04T07:15:15.726Z,89.60
2019-01-04T07:17:43.080Z,87.40
2019-01-04T07:20:10.421Z,87.30
2019-01-04T07:22:38.213Z,87.00
2019-01-04T07:25:05.778Z,86.70
2019-01-04T07:27:34.167Z,86.50
2019-01-04T07:30:02.025Z,85.90
2019-01-04T07:32:29.710Z,86.60
2019-01-04T07:34:57.133Z,85.50
2019-01-04T07:37:24.577Z,85.30
2019-01-04T07:39:52.142Z,84.90
2019-01-04T07:42:19.863Z,85.30
2019-01-04T07:48:19.912Z,84.90
2019-01-04T07:50:47.383Z,85.40
2019-01-04T07:53:14.857Z,85.10
2019-01-04T07:55:42.506Z,84.90
2019-01-04T07:58:10.025Z,84.70
2019-01-04T08:00:37.509Z,85.20
2019-01-04T08:03:21.695Z,84.80
2019-01-04T08:05:51.008Z,84.60
2019-01-04T08:08:18.523Z,84.40
2019-01-04T08:10:45.956Z,84.10
2019-01-04T08:13:14.507Z,83.80
2019-01-04T08:15:41.859Z,83.50
2019-01-04T08:18:09.366Z,83.20
2019-01-04T08:20:37.101Z,83.00
2019-01-04T08:23:04.852Z,82.80
2019-01-04T08:25:32.343Z,82.50
2019-01-04T08:28:01.047Z,83.30
2019-01-04T08:30:29.366Z,83.80
2019-01-04T08:32:57.061Z,82.70
2019-01-04T08:35:24.718Z,82.20
2019-01-04T08:37:52.114Z,82.40
2019-01-04T08:40:19.512Z,81.90
2019-01-04T08:42:47.960Z,81.00
2019-01-04T08:45:15.829Z,80.50
2019-01-04T08:47:43.221Z,80.50
2019-01-04T08:50:12.157Z,79.50
2019-01-04T08:52:40.910Z,78.30
2019-01-04T08:55:31.614Z,76.60
2019-01-04T08:57:59.041Z,75.70
2019-01-04T09:00:26.437Z,75.10
2019-01-04T09:02:53.888Z,73.90
2019-01-04T09:05:21.493Z,73.50
2019-01-04T09:07:48.941Z,73.10
2019-01-04T09:10:16.466Z,72.80
2019-01-04T09:12:44.345Z,70.50
2019-01-04T09:15:15.224Z,68.30
2019-01-04T09:17:44.004Z,67.10
2019-01-04T09:20:12.088Z,69.60
2019-01-04T09:22:43.167Z,68.90
2019-01-04T09:25:16.581Z,69.70
2019-01-04T09:28:00.203Z,70.50
2019-01-04T09:30:28.540Z,70.20
2019-01-04T09:32:56.009Z,69.90
2019-01-04T09:35:23.380Z,70.80
2019-01-04T09:37:50.985Z,70.50
2019-01-04T09:40:18.356Z,70.60
2019-01-04T09:42:47.349Z,69.50
2019-01-04T09:45:14.816Z,70.00
2019-01-04T09:47:42.246Z,69.00
2019-01-04T09:50:10.017Z,66.10
2019-01-04T09:52:37.445Z,67.10
2019-01-04T09:55:06.536Z,65.70
2019-01-04T09:57:33.903Z,59.00
2019-01-04T10:00:01.504Z,54.90
2019-01-04T10:02:29.045Z,52.70
2019-01-04T10:04:56.548Z,48.50
2019-01-04T10:07:23.926Z,44.70
2019-01-04T10:09:51.350Z,42.90
2019-01-04T10:12:18.850Z,43.30
2019-01-04T10:14:46.241Z,44.70
2019-01-04T10:17:13.602Z,46.60
2019-01-04T10:19:41.044Z,46.50
2019-01-04T10:22:08.373Z,43.70
2019-01-04T10:24:35.790Z,44.70
2019-01-04T10:27:03.485Z,44.10
2019-01-04T10:29:30.948Z,44.50
2019-01-04T10:31:58.386Z,46.00
2019-01-04T10:34:25.765Z,48.70
2019-01-04T10:36:53.116Z,48.50
2019-01-04T10:39:20.476Z,47.80
2019-01-04T10:41:48.059Z,44.70
2019-01-04T10:44:18.492Z,42.20
2019-01-04T10:46:46.092Z,41.30
2019-01-04T10:49:13.460Z,41.90
2019-01-04T10:51:41.133Z,43.70
2019-01-04T10:54:08.578Z,46.00
2019-01-04T10:56:36.025Z,49.30
2019-01-04T10:59:03.901Z,52.10
2019-01-04T11:01:31.792Z,54.70
2019-01-04T11:03:59.520Z,57.40
2019-01-04T11:06:28.471Z,58.60
2019-01-04T11:08:56.558Z,59.70
2019-01-04T11:11:24.411Z,61.20
2019-01-04T11:13:53.085Z,62.70
2019-01-04T11:16:23.688Z,64.30
2019-01-04T11:18:51.112Z,65.70
2019-01-04T11:21:18.693Z,66.80
2019-01-04T11:24:22.984Z,67.40
2019-01-04T11:27:08.953Z,68.10
2019-01-04T11:30:40.817Z,66.20
2019-01-04T11:34:05.045Z,66.30
2019-01-04T11:37:05.698Z,67.10
2019-01-04T11:40:32.796Z,67.70
2019-01-04T11:44:09.117Z,69.40
2019-01-04T11:47:20.072Z,71.10
2019-01-04T11:50:25.855Z,70.50
2019-01-04T11:53:04.205Z,67.10
2019-01-04T11:55:31.924Z,63.70
2019-01-04T11:57:59.292Z,61.00
2019-01-04T12:00:26.971Z,61.90
2019-01-04T12:02:54.646Z,62.70
2019-01-04T12:05:22.168Z,63.20
2019-01-04T12:07:50.789Z,62.50
2019-01-04T12:10:18.933Z,61.30
2019-01-04T12:12:46.560Z,60.30
2019-01-04T12:15:13.973Z,59.70
2019-01-04T12:17:41.499Z,57.60
2019-01-04T12:20:09.033Z,54.40
2019-01-04T12:22:36.410Z,49.40
2019-01-04T12:25:04.011Z,45.10
2019-01-04T12:27:31.452Z,42.60
2019-01-04T12:29:58.894Z,42.40
2019-01-04T12:32:26.652Z,43.80
2019-01-04T12:34:55.115Z,47.10
2019-01-04T12:37:22.756Z,50.10
2019-01-04T12:39:50.273Z,52.70
2019-01-04T12:42:17.700Z,54.60
2019-01-04T12:44:45.356Z,56.50
2019-01-04T12:47:12.962Z,57.70
2019-01-04T12:49:40.543Z,60.50
2019-01-04T12:52:08.583Z,59.40
2019-01-04T12:54:35.936Z,60.40
2019-01-04T12:57:03.582Z,61.10
2019-01-04T12:59:31.260Z,61.60
2019-01-04T13:01:58.637Z,61.90
2019-01-04T13:04:27.422Z,62.10
2019-01-04T13:06:54.777Z,62.80
2019-01-04T13:09:23.888Z,65.10
2019-01-04T13:11:51.485Z,64.10
2019-01-04T13:14:19.133Z,64.80
2019-01-04T13:16:46.471Z,65.50
2019-01-04T13:19:13.946Z,67.00
2019-01-04T13:21:41.316Z,68.20
2019-01-04T13:24:08.688Z,68.80
2019-01-04T13:26:36.045Z,69.10
2019-01-04T13:29:04.919Z,69.40
2019-01-04T13:31:34.055Z,70.50
2019-01-04T13:34:03.695Z,70.20
2019-01-04T13:36:31.920Z,70.60
2019-01-04T13:38:59.638Z,71.10
2019-01-04T13:41:27.077Z,71.70
2019-01-04T13:43:54.684Z,72.60
2019-01-04T13:46:22.159Z,73.90
2019-01-04T13:48:49.969Z,74.00
2019-01-04T13:51:19.168Z,73.70
2019-01-04T13:53:46.533Z,73.50
2019-01-04T13:56:13.943Z,73.80
2019-01-04T13:58:41.756Z,74.20
2019-01-04T14:01:10.027Z,75.00
2019-01-04T14:03:37.450Z,77.10
2019-01-04T14:06:06.905Z,77.40
2019-01-04T14:08:35.574Z,78.40
2019-01-04T14:11:03.128Z,78.90
2019-01-04T14:13:31.464Z,79.90
2019-01-04T14:16:00.113Z,80.50
2019-01-04T14:18:29.587Z,81.40
2019-01-04T14:20:57.650Z,81.60
2019-01-04T14:23:28.776Z,82.20
2019-01-04T14:25:54.522Z,82.70
2019-01-04T14:28:22.365Z,82.70
2019-01-04T14:30:49.819Z,83.60
2019-01-04T14:33:17.245Z,83.40
2019-01-04T14:35:44.920Z,83.50
2019-01-04T14:38:46.140Z,83.70
2019-01-04T14:41:15.620Z,84.40
2019-01-04T14:43:43.492Z,85.00
2019-01-04T14:46:10.898Z,85.60
2019-01-04T14:48:38.896Z,85.30
2019-01-04T14:51:06.292Z,86.30
2019-01-04T14:53:33.751Z,86.80
2019-01-04T14:56:01.363Z,87.80
2019-01-04T14:58:28.796Z,88.00
2019-01-04T15:00:56.471Z,88.50
2019-01-04T15:03:23.865Z,88.60
2019-01-04T15:05:51.335Z,89.00
2019-01-04T15:08:18.887Z,89.20
2019-01-04T15:10:46.257Z,89.10
2019-01-04T15:13:13.751Z,89.50
2019-01-04T15:15:41.096Z,90.00
2019-01-04T15:18:08.443Z,90.10
2019-01-04T15:20:36.180Z,90.10
2019-01-04T15:23:03.632Z,90.20
2019-01-04T15:25:30.981Z,90.10
2019-01-04T15:27:58.438Z,90.60
2019-01-04T15:30:25.795Z,90.40
2019-01-04T15:32:53.136Z,90.20
2019-01-04T15:35:20.584Z,90.10
2019-01-04T15:37:48.070Z,90.20
2019-01-04T15:40:15.584Z,90.50
2019-01-04T15:42:43.031Z,90.50
2019-01-04T15:45:10.508Z,90.40
2019-01-04T15:47:38.002Z,90.50
2019-01-04T15:50:07.175Z,90.40
2019-01-04T15:52:34.709Z,90.60
2019-01-04T15:55:02.163Z,90.60
2019-01-04T15:57:29.564Z,90.50
2019-01-04T15:59:57.049Z,90.50
2019-01-04T16:02:24.623Z,90.60
2019-01-04T16:04:51.984Z,90.60
2019-01-04T16:07:19.468Z,90.60
2019-01-04T16:09:47.263Z,90.80
2019-01-04T16:12:14.626Z,90.80
2019-01-04T16:14:42.330Z,90.80
2019-01-04T16:17:12.218Z,90.80
2019-01-04T16:19:42.722Z,90.90
2019-01-04T16:22:11.027Z,91.10
2019-01-04T16:24:38.621Z,91.00
2019-01-04T16:27:09.380Z,90.90
2019-01-04T16:29:37.435Z,90.90
2019-01-04T16:32:05.215Z,90.80
2019-01-04T16:34:32.549Z,91.30
2019-01-04T16:36:59.969Z,91.00
2019-01-04T16:39:27.318Z,91.00
2019-01-04T16:42:01.500Z,91.00
2019-01-04T16:44:28.991Z,91.00
2019-01-04T16:46:56.400Z,91.10
2019-01-04T16:49:23.940Z,91.10
2019-01-04T16:51:54.990Z,91.10
2019-01-04T16:54:23.421Z,91.10
2019-01-04T16:56:53.441Z,91.10
2019-01-04T16:59:22.286Z,91.20
2019-01-04T17:01:52.277Z,91.20
2019-01-04T17:04:22.948Z,91.20
2019-01-04T17:06:50.874Z,91.40
2019-01-04T17:09:19.988Z,91.30
2019-01-04T17:11:48.353Z,91.30
2019-01-04T17:14:15.874Z,91.20
2019-01-04T17:16:43.230Z,91.30
2019-01-04T17:19:10.667Z,91.30
2019-01-04T17:21:38.312Z,91.20
2019-01-04T17:24:05.702Z,91.20
2019-01-04T17:26:33.098Z,91.20
2019-01-04T17:29:00.579Z,91.20
2019-01-04T17:31:28.255Z,91.30
2019-01-04T17:33:55.775Z,91.20
2019-01-04T17:36:23.666Z,91.20
2019-01-04T17:38:51.324Z,91.20
2019-01-04T17:41:19.058Z,91.30
2019-01-04T17:43:47.571Z,91.30
2019-01-04T17:46:14.994Z,91.40
2019-01-04T17:48:42.508Z,91.40
2019-01-04T17:51:12.171Z,91.40
2019-01-04T17:53:39.807Z,91.40
2019-01-04T17:56:07.244Z,91.60
2019-01-04T17:58:34.743Z,91.50
2019-01-04T18:01:02.308Z,91.90
2019-01-04T18:03:29.773Z,91.80
2019-01-04T18:05:57.338Z,91.70
2019-01-04T18:08:25.347Z,91.80
2019-01-04T18:10:54.781Z,91.70
2019-01-04T18:13:24.354Z,91.70
2019-01-04T18:15:54.593Z,91.80
2019-01-04T18:18:23.488Z,92.10
2019-01-04T18:20:52.808Z,91.90
2019-01-04T18:23:20.557Z,91.80
2019-01-04T18:25:50.953Z,91.80
2019-01-04T18:28:20.575Z,91.70
2019-01-04T18:30:48.103Z,91.80
2019-01-04T18:33:17.167Z,91.80
2019-01-04T18:35:45.159Z,91.80
2019-01-04T18:38:12.748Z,91.90
2019-01-04T18:40:40.076Z,91.90
2019-01-04T18:43:07.846Z,92.20
2019-01-04T18:45:35.427Z,91.90
2019-01-04T18:48:02.888Z,91.90
2019-01-04T18:50:31.874Z,91.90
2019-01-04T18:52:59.268Z,92.00
2019-01-04T18:55:28.186Z,92.00
2019-01-04T18:57:56.328Z,92.00
2019-01-04T19:00:34.613Z,92.20
2019-01-04T19:03:02.441Z,92.10
2019-01-04T19:05:29.930Z,92.10
2019-01-04T19:08:00.803Z,92.10
2019-01-04T19:10:28.636Z,92.10
2019-01-04T19:12:56.090Z,92.00
2019-01-04T19:15:24.116Z,92.00
2019-01-04T19:17:51.546Z,92.10
2019-01-04T19:20:19.130Z,92.00
2019-01-04T19:22:46.981Z,92.10
2019-01-04T19:25:14.447Z,92.10
2019-01-04T19:27:42.842Z,92.20
2019-01-04T19:30:10.515Z,92.20
2019-01-04T19:32:38.289Z,92.20
2019-01-04T19:35:06.049Z,92.20
2019-01-04T19:37:33.536Z,92.20
2019-01-04T19:40:00.914Z,92.30
2019-01-04T19:42:28.542Z,92.30
2019-01-04T19:44:55.951Z,92.20
2019-01-04T19:47:23.592Z,92.20
2019-01-04T19:49:51.196Z,92.10
2019-01-04T19:52:18.710Z,92.20
2019-01-04T19:54:46.163Z,92.40
2019-01-04T19:57:13.897Z,92.10
2019-01-04T19:59:41.690Z,92.10
2019-01-04T20:02:09.705Z,92.20
2019-01-04T20:04:37.477Z,92.20
2019-01-04T20:07:50.384Z,92.20
2019-01-04T20:11:51.661Z,92.20
2019-01-04T20:15:46.387Z,92.20
2019-01-04T20:18:39.165Z,92.20
2019-01-04T20:21:32.292Z,92.20
2019-01-04T20:24:19.702Z,92.10
2019-01-04T20:27:09.381Z,92.10
2019-01-04T20:29:59.810Z,92.10
2019-01-04T20:32:45.905Z,92.10
2019-01-04T20:35:31.319Z,92.10
2019-01-04T20:38:24.245Z,92.10
2019-01-04T20:41:20.395Z,92.10
2019-01-04T20:44:05.817Z,92.00
2019-01-04T20:46:52.491Z,92.10
2019-01-04T20:49:53.534Z,92.20
2019-01-04T20:52:42.849Z,92.10
2019-01-04T20:55:38.276Z,92.10
2019-01-04T20:58:23.995Z,92.00
2019-01-04T21:01:17.077Z,92.00
2019-01-04T21:04:06.763Z,92.10
2019-01-04T21:06:59.844Z,92.10
2019-01-04T21:09:51.955Z,92.20
2019-01-04T21:12:51.837Z,92.20
2019-01-04T21:15:40.987Z,92.30
2019-01-04T21:18:27.827Z,92.30
2019-01-04T21:21:15.343Z,92.30
2019-01-04T21:24:01.200Z,92.50
2019-01-04T21:26:57.207Z,93.60
2019-01-04T21:29:42.650Z,92.60
2019-01-04T21:32:35.946Z,92.60
2019-01-04T21:35:23.496Z,92.50
2019-01-04T21:38:09.110Z,92.50
2019-01-04T21:41:06.999Z,92.60
2019-01-04T21:44:03.017Z,92.60
2019-01-04T21:46:58.682Z,93.00
2019-01-04T21:49:44.200Z,92.70
2019-01-04T21:52:30.173Z,92.70
2019-01-04T21:55:16.065Z,92.90
2019-01-04T21:58:03.007Z,92.80
2019-01-04T22:00:51.244Z,92.90
2019-01-04T22:03:42.602Z,93.10
2019-01-04T22:06:43.217Z,92.90
2019-01-04T22:09:29.157Z,92.90
2019-01-04T22:12:09.944Z,92.90
2019-01-04T22:14:49.879Z,92.80
2019-01-04T22:17:39.921Z,92.90
2019-01-04T22:20:19.668Z,92.90
2019-01-04T22:23:12.679Z,93.00
2019-01-04T22:25:58.619Z,92.70
2019-01-04T22:28:48.579Z,92.70
2019-01-04T22:31:27.083Z,92.60
2019-01-04T22:34:32.735Z,92.70
2019-01-04T22:37:26.016Z,92.70
2019-01-04T22:40:22.138Z,93.00
2019-01-04T22:43:07.919Z,92.70
2019-01-04T22:46:07.123Z,92.70
2019-01-04T22:48:52.707Z,92.80
2019-01-04T22:51:45.609Z,92.80
2019-01-04T22:54:33.544Z,92.90
2019-01-04T22:57:19.554Z,92.90
2019-01-04T23:00:09.826Z,93.10
2019-01-04T23:03:07.782Z,92.80
2019-01-04T23:06:12.935Z,93.00
2019-01-04T23:08:56.387Z,92.90
2019-01-04T23:11:42.338Z,92.80
2019-01-04T23:14:41.336Z,92.80
2019-01-04T23:17:25.972Z,92.90
2019-01-04T23:20:25.443Z,92.80
2019-01-04T23:23:16.272Z,92.90
2019-01-04T23:26:03.282Z,92.80
2019-01-04T23:28:43.496Z,92.70
2019-01-04T23:31:49.125Z,92.80
2019-01-04T23:34:51.399Z,92.80
2019-01-04T23:37:37.734Z,92.90
2019-01-04T23:40:24.012Z,92.80
2019-01-04T23:43:09.887Z,92.90
2019-01-04T23:45:55.737Z,93.00
2019-01-04T23:48:46.119Z,93.10
2019-01-04T23:51:33.454Z,93.20
2019-01-04T23:54:26.646Z,93.30
2019-01-04T23:57:22.758Z,94.40
